createdAt,value
2023-01-07T00:01:44.191Z,94.30
2023-01-07T00:04:30.350Z,94.30
2023-01-07T00:07:16.322Z,94.30
2023-01-07T00:10:02.359Z,94.30
2023-01-07T00:12:48.537Z,94.20
2023-01-07T00:15:34.551Z,94.30
2023-01-07T00:18:20.594Z,94.60
2023-01-07T00:21:07.929Z,94.60
2023-01-07T00:23:55.784Z,94.80
2023-01-07T00:26:41.703Z,94.50
2023-01-07T00:29:27.544Z,94.30
2023-01-07T00:32:13.525Z,94.50
2023-01-07T00:34:59.618Z,94.20
2023-01-07T00:37:51.688Z,93.90
2023-01-07T00:40:38.018Z,93.90
2023-01-07T00:43:24.112Z,94.10
2023-01-07T00:46:11.972Z,94.20
2023-01-07T00:48:57.799Z,94.30
2023-01-07T00:51:43.488Z,94.10
2023-01-07T00:54:29.706Z,94.40
2023-01-07T00:57:15.314Z,94.40
2023-01-07T01:00:01.412Z,94.60
2023-01-07T01:02:47.930Z,94.80
2023-01-07T01:05:34.341Z,94.40
2023-01-07T01:08:21.233Z,94.30
2023-01-07T01:11:07.995Z,94.30
2023-01-07T01:13:53.857Z,94.50
2023-01-07T01:16:40.090Z,94.60
2023-01-07T01:19:26.222Z,94.60
2023-01-07T01:22:12.263Z,94.60
2023-01-07T01:24:58.250Z,94.40
2023-01-07T01:27:44.184Z,94.20
2023-01-07T01:30:30.236Z,94.10
2023-01-07T01:33:17.920Z,94.10
2023-01-07T01:36:05.828Z,94.10
2023-01-07T01:38:52.070Z,94.10
2023-01-07T01:41:38.402Z,93.90
2023-01-07T01:44:43.042Z,94.00
2023-01-07T01:47:46.057Z,94.50
2023-01-07T01:50:32.401Z,94.20
2023-01-07T01:53:24.395Z,94.20
2023-01-07T01:56:12.891Z,94.40
2023-01-07T01:59:01.295Z,94.40
2023-01-07T02:01:48.207Z,94.50
2023-01-07T02:04:36.464Z,94.70
2023-01-07T02:07:22.816Z,94.70
2023-01-07T02:10:15.835Z,94.80
2023-01-07T02:13:17.495Z,94.70
2023-01-07T02:16:25.842Z,94.50
2023-01-07T02:19:27.058Z,94.70
2023-01-07T02:22:16.204Z,94.60
2023-01-07T02:25:05.380Z,94.60
2023-01-07T02:28:07.807Z,94.50
2023-01-07T02:31:12.281Z,94.50
2023-01-07T02:34:08.972Z,94.60
2023-01-07T02:37:14.602Z,94.60
2023-01-07T02:40:19.385Z,94.50
2023-01-07T02:43:10.993Z,94.70
2023-01-07T02:46:05.193Z,94.40
2023-01-07T02:48:51.517Z,94.60
2023-01-07T02:51:39.603Z,94.40
2023-01-07T02:54:27.315Z,94.50
2023-01-07T02:57:14.879Z,94.60
2023-01-07T03:00:07.040Z,94.80
2023-01-07T03:02:56.286Z,94.80
2023-01-07T03:05:51.200Z,94.60
2023-01-07T03:08:46.613Z,94.40
2023-01-07T03:11:52.235Z,94.40
2023-01-07T03:14:41.239Z,94.40
2023-01-07T03:17:34.524Z,94.40
2023-01-07T03:20:22.508Z,94.40
2023-01-07T03:23:11.068Z,94.30
2023-01-07T03:25:59.088Z,94.00
2023-01-07T03:28:45.783Z,94.10
2023-01-07T03:31:32.159Z,94.40
2023-01-07T03:34:21.106Z,94.70
2023-01-07T03:37:11.994Z,94.70
2023-01-07T03:39:58.927Z,94.80
2023-01-07T03:42:47.904Z,94.60
2023-01-07T03:45:52.459Z,94.20
2023-01-07T03:48:38.629Z,94.40
2023-01-07T03:51:24.760Z,94.20
2023-01-07T03:54:11.391Z,94.10
2023-01-07T03:56:57.467Z,93.70
2023-01-07T03:59:43.425Z,93.50
2023-01-07T04:02:30.167Z,93.40
2023-01-07T04:05:16.775Z,93.70
2023-01-07T04:08:02.808Z,93.70
2023-01-07T04:10:52.955Z,93.90
2023-01-07T04:13:38.894Z,94.00
2023-01-07T04:16:25.004Z,93.80
2023-01-07T04:19:11.180Z,93.80
2023-01-07T04:21:57.023Z,93.50
2023-01-07T04:24:43.046Z,93.50
2023-01-07T04:27:30.908Z,93.50
2023-01-07T04:30:17.287Z,93.60
2023-01-07T04:33:03.625Z,94.00
2023-01-07T04:35:49.744Z,94.00
2023-01-07T04:38:37.513Z,94.00
2023-01-07T04:41:24.985Z,93.90
2023-01-07T04:44:11.310Z,93.90
2023-01-07T04:46:57.123Z,93.90
2023-01-07T04:49:44.157Z,94.10
2023-01-07T04:52:30.818Z,94.20
2023-01-07T04:55:17.667Z,94.30
2023-01-07T04:58:04.971Z,94.30
2023-01-07T05:00:54.054Z,94.30
2023-01-07T05:03:41.737Z,94.40
2023-01-07T05:06:28.299Z,94.40
2023-01-07T05:09:14.262Z,94.30
2023-01-07T05:12:00.995Z,94.20
2023-01-07T05:14:47.454Z,94.20
2023-01-07T05:17:34.104Z,94.20
2023-01-07T05:20:21.170Z,94.20
2023-01-07T05:23:07.191Z,94.50
2023-01-07T05:25:53.928Z,94.50
2023-01-07T05:28:40.166Z,94.40
2023-01-07T05:31:26.094Z,94.40
2023-01-07T05:34:12.160Z,94.30
2023-01-07T05:36:58.195Z,93.90
2023-01-07T05:39:44.248Z,94.00
2023-01-07T05:42:35.410Z,94.00
2023-01-07T05:45:21.858Z,93.60
2023-01-07T05:48:07.597Z,93.50
2023-01-07T05:50:53.674Z,93.40
2023-01-07T05:53:39.870Z,93.50
2023-01-07T05:56:25.895Z,93.60
2023-01-07T05:59:11.825Z,93.90
2023-01-07T06:01:57.720Z,93.30
2023-01-07T06:04:44.034Z,93.80
2023-01-07T06:07:29.903Z,93.90
2023-01-07T06:10:15.977Z,94.30
2023-01-07T06:13:04.778Z,94.50
2023-01-07T06:15:50.846Z,94.60
2023-01-07T06:18:36.965Z,94.70
2023-01-07T06:21:22.597Z,94.80
2023-01-07T06:24:08.806Z,95.00
2023-01-07T06:26:54.587Z,95.10
2023-01-07T06:29:40.553Z,95.00
2023-01-07T06:32:26.801Z,95.00
2023-01-07T06:35:12.491Z,95.10
2023-01-07T06:37:58.391Z,95.10
2023-01-07T06:40:44.703Z,95.20
2023-01-07T06:43:30.668Z,95.30
2023-01-07T06:46:16.801Z,95.40
2023-01-07T06:49:02.802Z,95.40
2023-01-07T06:51:48.874Z,95.30
2023-01-07T06:54:35.043Z,95.20
2023-01-07T06:57:21.123Z,95.30
2023-01-07T07:00:07.288Z,95.30
2023-01-07T07:02:53.028Z,95.50
2023-01-07T07:05:38.924Z,95.40
2023-01-07T07:08:25.076Z,95.40
2023-01-07T07:11:10.964Z,95.40
2023-01-07T07:13:56.998Z,95.60
2023-01-07T07:16:43.069Z,95.50
2023-01-07T07:19:28.977Z,95.60
2023-01-07T07:22:14.942Z,95.60
2023-01-07T07:25:00.932Z,95.70
2023-01-07T07:27:47.045Z,95.70
2023-01-07T07:30:45.532Z,95.60
2023-01-07T07:33:32.352Z,95.70
2023-01-07T07:36:18.458Z,95.70
2023-01-07T07:39:04.694Z,95.70
2023-01-07T07:41:50.367Z,95.80
2023-01-07T07:44:37.490Z,95.70
2023-01-07T07:47:23.414Z,95.80
2023-01-07T07:50:09.470Z,95.90
2023-01-07T07:52:55.174Z,95.50
2023-01-07T07:55:41.193Z,95.30
2023-01-07T07:58:27.192Z,94.60
2023-01-07T08:01:13.167Z,93.70
2023-01-07T08:03:59.234Z,92.70
2023-01-07T08:06:45.183Z,91.70
2023-01-07T08:09:30.821Z,90.20
2023-01-07T08:12:16.816Z,87.40
2023-01-07T08:15:02.841Z,86.10
2023-01-07T08:17:55.997Z,84.60
2023-01-07T08:20:42.022Z,84.30
2023-01-07T08:23:28.611Z,84.00
2023-01-07T08:26:14.365Z,84.10
2023-01-07T08:29:00.129Z,83.70
2023-01-07T08:31:46.326Z,82.60
2023-01-07T08:34:32.256Z,84.40
2023-01-07T08:37:18.352Z,85.20
2023-01-07T08:40:06.148Z,85.50
2023-01-07T08:42:51.936Z,85.00
2023-01-07T08:45:38.190Z,83.40
2023-01-07T08:48:24.015Z,85.70
2023-01-07T08:51:10.060Z,83.70
2023-01-07T08:53:55.981Z,84.60
2023-01-07T08:56:42.111Z,84.40
2023-01-07T08:59:28.116Z,84.70
2023-01-07T09:02:15.528Z,85.40
2023-01-07T09:05:01.494Z,86.20
2023-01-07T09:07:51.272Z,86.50
2023-01-07T09:10:37.570Z,87.60
2023-01-07T09:13:23.638Z,88.40
2023-01-07T09:16:09.952Z,89.10
2023-01-07T09:18:55.786Z,90.00
2023-01-07T09:21:41.726Z,89.70
2023-01-07T09:24:27.781Z,89.90
2023-01-07T09:27:14.655Z,90.10
2023-01-07T09:30:00.352Z,90.20
2023-01-07T09:32:46.564Z,90.00
2023-01-07T09:35:32.332Z,90.00
2023-01-07T09:38:18.271Z,90.20
2023-01-07T09:41:05.456Z,90.10
2023-01-07T09:44:00.566Z,90.20
2023-01-07T09:46:48.097Z,90.10
2023-01-07T09:49:33.894Z,90.00
2023-01-07T09:52:22.842Z,90.10
2023-01-07T09:55:17.843Z,89.40
2023-01-07T09:58:04.138Z,87.40
2023-01-07T10:01:04.917Z,86.20
2023-01-07T10:03:53.730Z,84.00
2023-01-07T10:06:45.905Z,81.40
2023-01-07T10:09:41.201Z,79.50
2023-01-07T10:12:48.927Z,77.80
2023-01-07T10:15:53.286Z,76.70
2023-01-07T10:18:58.166Z,74.00
2023-01-07T10:21:52.154Z,71.90
2023-01-07T10:24:39.783Z,71.40
2023-01-07T10:27:30.244Z,73.00
2023-01-07T10:30:18.935Z,74.90
2023-01-07T10:33:15.996Z,73.80
2023-01-07T10:36:20.504Z,71.70
2023-01-07T10:39:25.365Z,71.30
2023-01-07T10:42:20.667Z,71.70
2023-01-07T10:45:16.122Z,71.40
2023-01-07T10:48:37.783Z,68.70
2023-01-07T10:51:36.340Z,66.70
2023-01-07T10:54:22.362Z,65.50
2023-01-07T10:57:22.742Z,63.40
2023-01-07T11:00:12.895Z,61.30
2023-01-07T11:02:59.993Z,60.10
2023-01-07T11:05:47.028Z,59.00
2023-01-07T11:08:37.113Z,58.10
2023-01-07T11:11:24.170Z,55.90
2023-01-07T11:14:13.005Z,54.30
2023-01-07T11:17:22.041Z,54.30
2023-01-07T11:20:08.518Z,54.30
2023-01-07T11:22:54.900Z,53.60
2023-01-07T11:25:41.115Z,54.80
2023-01-07T11:28:27.267Z,55.10
2023-01-07T11:31:13.272Z,56.60
2023-01-07T11:34:02.068Z,58.10
2023-01-07T11:36:49.910Z,59.60
2023-01-07T11:39:36.282Z,58.30
2023-01-07T11:42:40.587Z,57.60
2023-01-07T11:45:27.960Z,56.70
2023-01-07T11:48:19.822Z,56.10
2023-01-07T11:51:06.729Z,56.60
2023-01-07T11:53:55.358Z,55.20
2023-01-07T11:56:41.491Z,53.70
2023-01-07T11:59:28.526Z,54.30
2023-01-07T12:02:27.014Z,53.60
2023-01-07T12:05:31.668Z,52.80
2023-01-07T12:08:19.422Z,52.60
2023-01-07T12:11:08.807Z,52.10
2023-01-07T12:13:55.435Z,52.60
2023-01-07T12:16:41.513Z,53.60
2023-01-07T12:19:31.550Z,53.80
2023-01-07T12:22:37.794Z,55.60
2023-01-07T12:25:33.682Z,56.30
2023-01-07T12:28:25.807Z,58.30
2023-01-07T12:31:11.836Z,58.60
2023-01-07T12:34:04.087Z,58.90
2023-01-07T12:36:55.400Z,59.30
2023-01-07T12:39:43.619Z,58.40
2023-01-07T12:42:32.177Z,57.40
2023-01-07T12:45:24.353Z,55.30
2023-01-07T12:48:16.750Z,53.70
2023-01-07T12:51:04.761Z,52.50
2023-01-07T12:53:53.015Z,51.40
2023-01-07T12:56:59.915Z,50.80
2023-01-07T12:59:57.942Z,51.00
2023-01-07T13:02:58.354Z,50.20
2023-01-07T13:05:59.655Z,50.00
2023-01-07T13:08:53.337Z,50.00
2023-01-07T13:12:06.813Z,49.00
2023-01-07T13:15:21.317Z,48.90
2023-01-07T13:18:07.327Z,49.30
2023-01-07T13:20:56.669Z,49.70
2023-01-07T13:24:00.031Z,50.90
2023-01-07T13:27:12.261Z,50.40
2023-01-07T13:30:19.079Z,49.50
2023-01-07T13:33:05.222Z,50.30
2023-01-07T13:36:03.823Z,50.70
2023-01-07T13:39:02.712Z,51.10
2023-01-07T13:42:01.893Z,49.20
2023-01-07T13:44:54.533Z,47.50
2023-01-07T13:48:00.485Z,46.80
2023-01-07T13:51:06.951Z,46.00
2023-01-07T13:53:52.822Z,45.80
2023-01-07T13:56:39.259Z,46.40
2023-01-07T13:59:30.021Z,45.20
2023-01-07T14:02:21.200Z,45.90
2023-01-07T14:05:10.169Z,45.30
2023-01-07T14:08:00.839Z,46.80
2023-01-07T14:10:51.974Z,47.00
2023-01-07T14:13:47.093Z,47.30
2023-01-07T14:16:33.167Z,46.90
2023-01-07T14:19:19.073Z,46.90
2023-01-07T14:22:08.058Z,47.80
2023-01-07T14:24:57.019Z,47.50
2023-01-07T14:27:43.076Z,46.60
2023-01-07T14:30:51.109Z,46.30
2023-01-07T14:33:38.424Z,45.40
2023-01-07T14:36:25.078Z,45.30
2023-01-07T14:39:30.744Z,45.50
2023-01-07T14:42:16.833Z,44.70
2023-01-07T14:45:02.931Z,45.00
2023-01-07T14:47:48.750Z,45.10
2023-01-07T14:50:53.841Z,44.90
2023-01-07T14:53:58.604Z,46.00
2023-01-07T14:57:03.447Z,46.80
2023-01-07T15:00:03.790Z,48.30
2023-01-07T15:02:52.761Z,50.20
2023-01-07T15:05:57.818Z,51.50
2023-01-07T15:09:05.067Z,53.00
2023-01-07T15:12:11.564Z,54.30
2023-01-07T15:15:31.413Z,54.50
2023-01-07T15:18:17.317Z,53.60
2023-01-07T15:21:21.915Z,54.90
2023-01-07T15:24:26.870Z,56.70
2023-01-07T15:27:24.023Z,58.80
2023-01-07T15:30:15.916Z,60.90
2023-01-07T15:33:20.906Z,62.90
2023-01-07T15:36:09.578Z,65.00
2023-01-07T15:38:56.256Z,66.90
2023-01-07T15:41:42.495Z,68.00
2023-01-07T15:44:35.027Z,68.80
2023-01-07T15:47:29.523Z,69.60
2023-01-07T15:50:27.876Z,69.70
2023-01-07T15:53:13.715Z,71.10
2023-01-07T15:55:59.890Z,70.90
2023-01-07T15:58:48.741Z,71.30
2023-01-07T16:01:46.844Z,72.60
2023-01-07T16:04:34.273Z,73.40
2023-01-07T16:07:26.840Z,74.20
2023-01-07T16:10:38.977Z,74.50
2023-01-07T16:13:24.761Z,74.10
2023-01-07T16:16:15.291Z,75.40
2023-01-07T16:19:02.091Z,76.40
2023-01-07T16:21:51.250Z,76.90
2023-01-07T16:24:37.267Z,76.70
2023-01-07T16:27:28.025Z,77.00
2023-01-07T16:30:15.196Z,77.60
2023-01-07T16:33:01.186Z,77.80
2023-01-07T16:35:47.823Z,78.90
2023-01-07T16:38:36.508Z,78.90
2023-01-07T16:41:26.708Z,78.50
2023-01-07T16:44:33.358Z,79.10
2023-01-07T16:47:21.559Z,79.40
2023-01-07T16:50:13.294Z,79.70
2023-01-07T16:52:59.543Z,79.60
2023-01-07T16:55:46.899Z,79.20
2023-01-07T16:58:53.021Z,79.40
2023-01-07T17:01:39.046Z,79.50
2023-01-07T17:04:27.981Z,79.50
2023-01-07T17:07:22.330Z,79.40
2023-01-07T17:10:17.052Z,79.20
2023-01-07T17:13:03.109Z,79.30
2023-01-07T17:15:49.082Z,79.80
2023-01-07T17:18:35.435Z,80.50
2023-01-07T17:21:33.572Z,80.30
2023-01-07T17:24:28.724Z,81.20
2023-01-07T17:27:18.151Z,81.60
2023-01-07T17:30:04.732Z,82.00
2023-01-07T17:32:51.250Z,81.90
2023-01-07T17:35:43.292Z,81.70
2023-01-07T17:38:29.645Z,82.00
2023-01-07T17:41:35.819Z,83.30
2023-01-07T17:44:22.242Z,84.50
2023-01-07T17:47:10.642Z,84.50
2023-01-07T17:49:56.538Z,85.00
2023-01-07T17:52:49.961Z,84.10
2023-01-07T17:55:36.290Z,83.20
2023-01-07T17:58:33.176Z,83.80
2023-01-07T18:01:21.135Z,84.00
2023-01-07T18:04:07.220Z,85.20
2023-01-07T18:06:53.110Z,85.60
2023-01-07T18:09:40.946Z,85.60
2023-01-07T18:12:30.897Z,84.90
2023-01-07T18:15:18.464Z,84.90
2023-01-07T18:18:04.658Z,84.90
2023-01-07T18:20:50.819Z,85.30
2023-01-07T18:23:36.607Z,85.10
2023-01-07T18:26:22.621Z,85.60
2023-01-07T18:29:09.263Z,86.00
2023-01-07T18:31:55.035Z,86.00
2023-01-07T18:34:41.150Z,86.70
2023-01-07T18:37:27.002Z,86.60
2023-01-07T18:40:12.999Z,86.80
2023-01-07T18:43:00.773Z,86.90
2023-01-07T18:45:46.873Z,87.40
2023-01-07T18:48:33.011Z,87.20
2023-01-07T18:51:19.069Z,86.90
2023-01-07T18:54:05.980Z,87.00
2023-01-07T18:56:51.964Z,86.60
2023-01-07T18:59:37.983Z,87.60
2023-01-07T19:02:24.048Z,88.20
2023-01-07T19:05:10.321Z,86.60
2023-01-07T19:07:56.019Z,86.90
2023-01-07T19:10:42.129Z,87.20
2023-01-07T19:13:28.150Z,88.40
2023-01-07T19:16:14.370Z,89.40
2023-01-07T19:19:00.134Z,89.70
2023-01-07T19:21:48.090Z,90.00
2023-01-07T19:24:34.163Z,90.20
2023-01-07T19:27:20.274Z,90.40
2023-01-07T19:30:06.716Z,90.40
2023-01-07T19:32:53.297Z,90.50
2023-01-07T19:35:39.247Z,90.10
2023-01-07T19:38:25.255Z,90.20
2023-01-07T19:41:12.175Z,90.30
2023-01-07T19:43:59.210Z,90.20
2023-01-07T19:46:45.064Z,89.90
2023-01-07T19:49:31.030Z,89.90
2023-01-07T19:52:17.512Z,89.70
2023-01-07T19:55:03.736Z,90.10
2023-01-07T19:57:49.454Z,90.10
2023-01-07T20:00:35.963Z,90.30
2023-01-07T20:03:22.177Z,90.20
2023-01-07T20:06:10.094Z,89.70
2023-01-07T20:08:57.048Z,89.20
2023-01-07T20:11:43.255Z,89.10
2023-01-07T20:14:29.108Z,89.10
2023-01-07T20:17:15.171Z,89.00
2023-01-07T20:20:01.157Z,89.20
2023-01-07T20:22:48.609Z,88.40
2023-01-07T20:25:34.478Z,88.50
2023-01-07T20:28:21.558Z,89.00
2023-01-07T20:31:08.333Z,89.10
2023-01-07T20:33:57.647Z,90.20
2023-01-07T20:36:43.822Z,90.40
2023-01-07T20:39:29.767Z,90.40
2023-01-07T20:42:15.908Z,90.60
2023-01-07T20:45:02.085Z,90.20
2023-01-07T20:47:47.998Z,90.20
2023-01-07T20:50:35.993Z,90.10
2023-01-07T20:53:22.285Z,89.70
2023-01-07T20:56:08.578Z,90.00
2023-01-07T20:58:57.285Z,90.00
2023-01-07T21:01:43.719Z,90.30
2023-01-07T21:04:30.437Z,90.00
2023-01-07T21:07:16.140Z,88.20
2023-01-07T21:10:02.339Z,88.90
2023-01-07T21:12:48.778Z,89.60
2023-01-07T21:15:36.363Z,90.20
2023-01-07T21:18:22.286Z,90.50
2023-01-07T21:21:12.760Z,90.60
2023-01-07T21:23:58.865Z,90.60
2023-01-07T21:26:44.614Z,90.60
2023-01-07T21:29:30.622Z,90.60
2023-01-07T21:32:16.908Z,90.60
2023-01-07T21:35:02.663Z,90.60
2023-01-07T21:37:49.788Z,90.60
2023-01-07T21:40:35.443Z,90.50
2023-01-07T21:43:21.565Z,90.20
2023-01-07T21:46:08.120Z,90.50
2023-01-07T21:48:54.462Z,90.30
2023-01-07T21:51:40.417Z,90.40
2023-01-07T21:54:26.473Z,90.00
2023-01-07T21:57:12.467Z,90.30
2023-01-07T21:59:58.350Z,90.30
2023-01-07T22:02:44.801Z,90.40
2023-01-07T22:05:30.917Z,90.30
2023-01-07T22:08:16.999Z,90.60
2023-01-07T22:11:03.295Z,90.90
2023-01-07T22:13:49.819Z,91.00
2023-01-07T22:16:35.631Z,90.80
2023-01-07T22:19:21.742Z,90.90
2023-01-07T22:22:07.533Z,90.60
2023-01-07T22:24:53.193Z,90.50
2023-01-07T22:27:39.279Z,91.10
2023-01-07T22:30:35.241Z,91.00
2023-01-07T22:33:22.722Z,90.70
2023-01-07T22:36:09.166Z,90.60
2023-01-07T22:38:56.959Z,90.60
2023-01-07T22:41:43.779Z,90.80
2023-01-07T22:44:34.925Z,90.70
2023-01-07T22:47:22.553Z,90.80
2023-01-07T22:50:09.382Z,91.40
2023-01-07T22:52:55.363Z,91.80
2023-01-07T22:55:41.202Z,91.60
2023-01-07T22:58:27.250Z,91.50
2023-01-07T23:01:14.215Z,91.50
2023-01-07T23:04:00.455Z,91.30
2023-01-07T23:06:46.555Z,91.00
2023-01-07T23:09:32.351Z,91.20
2023-01-07T23:12:18.436Z,90.60
2023-01-07T23:15:04.824Z,90.20
2023-01-07T23:17:50.889Z,90.50
2023-01-07T23:20:41.062Z,90.70
2023-01-07T23:23:27.189Z,90.80
2023-01-07T23:26:13.663Z,91.00
2023-01-07T23:28:59.338Z,91.30
2023-01-07T23:31:45.481Z,91.60
2023-01-07T23:34:31.212Z,91.20
2023-01-07T23:37:17.226Z,91.10
2023-01-07T23:40:03.827Z,91.30
2023-01-07T23:42:49.721Z,90.80
2023-01-07T23:45:35.718Z,90.90
2023-01-07T23:48:21.806Z,91.00
2023-01-07T23:51:17.945Z,91.30
2023-01-07T23:54:03.724Z,91.80
2023-01-07T23:56:50.199Z,91.90
2023-01-07T23:59:36.232Z,92.50
